Terminal Aerodrome Forecast
Issued by NWS

Home | Current Version | Previous Version | Text Only | Print | Product List | Glossary Off
Versions: 1 2 3 4 5 6 7 8 9 10 11 12 13 14 15 16 17 18 19 20 21 22

000
FTUS43 KABR 241727
TAFPIR
TAF
KPIR 241727Z 2418/2518 VRB05KT P6SM FEW250
     FM250100 12010KT P6SM VCTS SCT150CB
     FM250300 11009KT P6SM SHRA BKN090
      TEMPO 2503/2504 TS BKN040CB
     FM251200 10006KT P6SM VCSH BKN120
     FM251500 17005KT P6SM SCT120
     FM251700 23005KT P6SM SCT140=

USA.gov is the U.S. government's official web portal to all federal, state and local government web resources and services.